McLeod, MT (59052)

3:02 AM MDT on August 30, 2014 (GMT -0600)
Mission | Change Station
CLOSE
Current Station
Airport
Location: Livingston,
Elevation: 4656 ft
Nearby Weather Stations

Elev 4656 ft 45.70 °N, 110.44 °W | Updated 9 minutes ago

Scattered Clouds
Scattered Clouds
71 °F
Feels Like 71 °F
N
9
Wind Variable Wind from West

Today
High -- | Low -- °F
--% Chance of Precip.
Yesterday
High -- | Low -- °F
Precip. -- in
6:40 AM 8:02 PM
Waxing Crescent, 20% visible
Pressure 29.69 in
Visibility 10.0 miles
Clouds Scattered Clouds 11000 ft
Dew Point 39 °F
Humidity 31%
Rainfall 0.00 in
Snow Depth Not available.
UV 0 out of 12
Pollen 6.90 out of 12
Air Quality Not available.
Flu Activity Not available.
METAR KLVM 300853Z AUTO 28008KT 10SM SCT110 22/04 A2985 RMK AO2 SLP052 60000 T02170039 58016

More Conditions Fewer Conditions

Pressure 29.69 in
Visibility 10.0 miles
Clouds Scattered Clouds 11000 ft
Dew Point 39 °F
Humidity 31%
Rainfall 0.00 in
Snow Depth Not available.
UV 0 out of 12
Pollen 6.90 out of 12
Air Quality Not available.
Flu Activity Not available.
METAR KLVM 300853Z AUTO 28008KT 10SM SCT110 22/04 A2985 RMK AO2 SLP052 60000 T02170039 58016

More Conditions Fewer Conditions

10-Day Weather Forecast

Almanac

Astronomy

Aug. 30, 2014 Rise Set
Actual Time 6:40 AM MDT 8:02 PM MDT
Civil Twilight 6:09 AM MDT 8:33 PM MDT
Nautical Twilight 5:32 AM MDT 9:10 PM MDT
Astronomical Twilight 4:52 AM MDT 9:49 PM MDT
Moon 11:47 AM MDT 10:22 PM MDT
Length of Visible Light 14h 23m
Length of Day
13h 22m
Tomorrow will be 3m 3s shorter.
Waxing Crescent, 20% of the Moon is Illuminated
Today
Waxing Crescent
Sep 2
First Quarter
Sep 8
Full
Sep 15
Last Quarter
Sep 24
New

Today's Extremes

State Highs State Lows

Community

WunderPhotos

Upload Photos

1,748,474 photos uploaded!

Nearby

Snow Depth

Station Depth Elevation
Placer Basin 0 in 8830 ft
Monument Peak 0 in 8850 ft
Shower Falls 1 in 8100 ft
Fisher Creek 0 in 9100 ft
Sacajawea 0 in 6550 ft

Earthquake Activity

City Distance Mag. Time & Date
No recent earthquake activity has been reported nearby.
Minimum magnitude displayed is 2.5.

Coastal Water Temperatures

Place Temperature
No Stations Reporting

Nearby Weather Stations